createdAt,value
2018-09-21T00:01:01.193Z,20.90
2018-09-21T00:03:29.662Z,20.80
2018-09-21T00:05:58.114Z,20.90
2018-09-21T00:08:26.643Z,20.90
2018-09-21T00:10:55.148Z,20.90
2018-09-21T00:13:23.612Z,20.90
2018-09-21T00:15:52.028Z,20.90
2018-09-21T00:18:20.591Z,20.90
2018-09-21T00:20:48.992Z,20.90
2018-09-21T00:23:17.486Z,20.80
2018-09-21T00:25:45.955Z,20.80
2018-09-21T00:28:14.450Z,20.90
2018-09-21T00:30:42.976Z,20.90
2018-09-21T00:33:11.413Z,20.80
2018-09-21T00:35:39.895Z,20.80
2018-09-21T00:38:08.434Z,20.90
2018-09-21T00:40:36.832Z,20.80
2018-09-21T00:43:05.393Z,20.80
2018-09-21T00:45:33.868Z,20.80
2018-09-21T00:48:02.298Z,20.90
2018-09-21T00:50:30.802Z,20.80
2018-09-21T00:52:59.269Z,20.80
2018-09-21T00:55:27.909Z,20.80
2018-09-21T00:57:56.441Z,20.80
2018-09-21T01:00:24.880Z,20.80
2018-09-21T01:02:53.386Z,20.80
2018-09-21T01:05:21.835Z,20.80
2018-09-21T01:07:50.313Z,20.80
2018-09-21T01:10:18.884Z,20.80
2018-09-21T01:12:47.333Z,20.80
2018-09-21T01:15:15.797Z,20.80
2018-09-21T01:17:44.289Z,20.80
2018-09-21T01:20:12.770Z,20.80
2018-09-21T01:22:41.213Z,20.80
2018-09-21T01:25:09.695Z,20.80
2018-09-21T01:27:38.190Z,20.80
2018-09-21T01:30:06.655Z,20.80
2018-09-21T01:32:35.140Z,20.80
2018-09-21T01:35:03.703Z,20.80
2018-09-21T01:37:32.083Z,20.80
2018-09-21T01:40:00.643Z,20.80
2018-09-21T01:42:29.156Z,20.80
2018-09-21T01:44:57.581Z,20.80
2018-09-21T01:47:32.636Z,20.80
2018-09-21T01:50:01.044Z,20.80
2018-09-21T01:52:29.592Z,20.80
2018-09-21T01:54:58.013Z,20.80
2018-09-21T01:57:26.483Z,20.80
2018-09-21T01:59:54.996Z,20.80
2018-09-21T02:02:23.448Z,20.80
2018-09-21T02:04:51.944Z,20.80
2018-09-21T02:07:20.399Z,20.80
2018-09-21T02:09:48.932Z,20.80
2018-09-21T02:12:17.365Z,20.80
2018-09-21T02:14:45.895Z,20.80
2018-09-21T02:17:14.324Z,20.80
2018-09-21T02:19:44.477Z,20.80
2018-09-21T02:22:12.976Z,20.80
2018-09-21T02:24:41.400Z,20.80
2018-09-21T02:27:09.962Z,20.80
2018-09-21T02:29:38.597Z,20.80
2018-09-21T02:32:07.078Z,20.80
2018-09-21T02:34:35.582Z,20.80
2018-09-21T02:37:04.014Z,20.80
2018-09-21T02:39:32.536Z,20.80
2018-09-21T02:42:01.012Z,20.80
2018-09-21T02:44:29.448Z,20.80
2018-09-21T02:46:58.055Z,20.80
2018-09-21T02:49:26.617Z,20.80
2018-09-21T02:51:55.189Z,20.80
2018-09-21T02:54:23.598Z,20.80
2018-09-21T02:56:52.164Z,20.80
2018-09-21T02:59:20.589Z,20.80
2018-09-21T03:01:49.084Z,20.80
2018-09-21T03:04:17.536Z,20.80
2018-09-21T03:06:46.054Z,20.80
2018-09-21T03:09:14.454Z,20.80
2018-09-21T03:11:42.992Z,20.80
2018-09-21T03:14:11.419Z,20.80
2018-09-21T03:16:39.941Z,20.80
2018-09-21T03:19:08.397Z,20.80
2018-09-21T03:21:37.074Z,20.80
2018-09-21T03:24:05.555Z,20.80
2018-09-21T03:26:34.025Z,20.80
2018-09-21T03:29:02.522Z,20.80
2018-09-21T03:31:30.979Z,20.80
2018-09-21T03:33:59.473Z,20.80
2018-09-21T03:36:28.019Z,20.80
2018-09-21T03:38:56.496Z,20.80
2018-09-21T03:41:24.983Z,20.80
2018-09-21T03:43:53.388Z,20.80
2018-09-21T03:46:22.007Z,20.80
2018-09-21T03:48:50.676Z,20.80
2018-09-21T03:51:19.242Z,20.80
2018-09-21T03:53:47.768Z,20.80
2018-09-21T03:56:16.196Z,20.80
2018-09-21T03:58:44.702Z,20.70
2018-09-21T04:01:13.204Z,20.70
2018-09-21T04:03:41.676Z,20.70
2018-09-21T04:06:10.112Z,20.70
2018-09-21T04:08:38.622Z,20.80
2018-09-21T04:11:07.120Z,20.70
2018-09-21T04:13:35.663Z,20.70
2018-09-21T04:16:04.039Z,20.70
2018-09-21T04:18:32.544Z,20.70
2018-09-21T04:21:01.035Z,20.70
2018-09-21T04:23:29.549Z,20.70
2018-09-21T04:25:58.017Z,20.70
2018-09-21T04:28:26.501Z,20.80
2018-09-21T04:30:54.925Z,20.80
2018-09-21T04:33:23.427Z,20.70
2018-09-21T04:35:51.934Z,20.70
2018-09-21T04:38:20.348Z,20.70
2018-09-21T04:40:48.841Z,20.70
2018-09-21T04:43:17.315Z,20.80
2018-09-21T04:45:45.936Z,20.70
2018-09-21T04:48:14.309Z,20.70
2018-09-21T04:50:42.823Z,20.70
2018-09-21T04:53:11.267Z,20.70
2018-09-21T04:55:39.736Z,20.70
2018-09-21T04:58:08.237Z,20.70
2018-09-21T05:00:36.761Z,20.70
2018-09-21T05:03:05.207Z,20.70
2018-09-21T05:05:33.984Z,20.70
2018-09-21T05:08:02.609Z,20.70
2018-09-21T05:10:31.210Z,20.70
2018-09-21T05:12:59.742Z,20.70
2018-09-21T05:15:28.181Z,20.80
2018-09-21T05:17:56.660Z,20.80
2018-09-21T05:20:25.172Z,20.80
2018-09-21T05:22:53.608Z,20.80
2018-09-21T05:25:22.097Z,20.70
2018-09-21T05:27:50.674Z,20.70
2018-09-21T05:32:47.555Z,20.80
2018-09-21T05:35:16.240Z,20.80
2018-09-21T05:37:44.509Z,20.80
2018-09-21T05:40:13.031Z,20.80
2018-09-21T05:42:41.532Z,20.80
2018-09-21T05:45:09.945Z,20.80
2018-09-21T05:47:38.500Z,20.80
2018-09-21T05:50:06.889Z,20.80
2018-09-21T05:52:35.395Z,20.70
2018-09-21T05:55:03.864Z,20.80
2018-09-21T05:57:32.469Z,20.80
2018-09-21T06:00:01.008Z,20.80
2018-09-21T06:02:29.587Z,20.80
2018-09-21T06:05:05.272Z,20.80
2018-09-21T06:07:34.212Z,20.80
2018-09-21T06:10:03.113Z,20.80
2018-09-21T06:12:31.649Z,20.70
2018-09-21T06:15:00.282Z,20.80
2018-09-21T06:17:28.980Z,20.80
2018-09-21T06:19:57.508Z,20.80
2018-09-21T06:22:25.996Z,20.80
2018-09-21T06:24:54.445Z,20.80
2018-09-21T06:27:22.935Z,20.80
2018-09-21T06:29:51.450Z,20.80
2018-09-21T06:32:19.948Z,20.80
2018-09-21T06:34:48.424Z,20.80
2018-09-21T06:37:16.855Z,20.80
2018-09-21T06:39:45.385Z,20.80
2018-09-21T06:42:13.793Z,20.80
2018-09-21T06:44:42.568Z,20.80
2018-09-21T06:47:10.981Z,20.80
2018-09-21T06:49:39.454Z,20.80
2018-09-21T06:52:07.917Z,20.80
2018-09-21T06:54:36.465Z,20.80
2018-09-21T06:57:04.935Z,20.80
2018-09-21T06:59:33.561Z,20.80
2018-09-21T07:02:02.270Z,20.80
2018-09-21T07:04:30.785Z,20.80
2018-09-21T07:06:59.205Z,20.80
2018-09-21T07:09:27.703Z,20.80
2018-09-21T07:11:56.167Z,20.80
2018-09-21T07:14:24.680Z,20.80
2018-09-21T07:16:53.130Z,20.80
2018-09-21T07:19:21.675Z,20.80
2018-09-21T07:21:50.093Z,20.80
2018-09-21T07:24:18.576Z,20.80
2018-09-21T07:26:47.076Z,20.80
2018-09-21T07:29:15.533Z,20.80
2018-09-21T07:31:44.027Z,20.80
2018-09-21T07:34:12.570Z,20.80
2018-09-21T07:36:40.987Z,20.80
2018-09-21T07:39:09.523Z,20.80
2018-09-21T07:41:37.956Z,20.80
2018-09-21T07:44:06.461Z,20.80
2018-09-21T07:46:34.910Z,20.80
2018-09-21T07:49:03.407Z,20.80
2018-09-21T07:51:31.868Z,20.80
2018-09-21T07:54:00.353Z,20.80
2018-09-21T07:56:28.827Z,20.80
2018-09-21T07:58:57.427Z,20.80
2018-09-21T08:01:26.031Z,20.80
2018-09-21T08:03:54.455Z,20.80
2018-09-21T08:06:22.969Z,20.80
2018-09-21T08:08:51.516Z,20.80
2018-09-21T08:11:19.916Z,20.80
2018-09-21T08:13:48.426Z,20.80
2018-09-21T08:16:16.877Z,20.80
2018-09-21T08:18:45.384Z,20.80
2018-09-21T08:21:13.825Z,20.80
2018-09-21T08:23:42.373Z,20.80
2018-09-21T08:26:10.836Z,20.80
2018-09-21T08:28:39.337Z,20.80
2018-09-21T08:31:07.768Z,20.80
2018-09-21T08:33:36.289Z,20.80
2018-09-21T08:36:04.716Z,20.80
2018-09-21T08:38:33.198Z,20.70
2018-09-21T08:41:01.841Z,20.80
2018-09-21T08:43:30.431Z,20.80
2018-09-21T08:45:58.842Z,20.80
2018-09-21T08:48:27.334Z,20.70
2018-09-21T08:50:55.863Z,20.80
2018-09-21T08:53:24.316Z,20.80
2018-09-21T08:55:52.792Z,20.80
2018-09-21T08:58:26.584Z,20.80
2018-09-21T09:00:55.077Z,20.80
2018-09-21T09:03:23.588Z,20.80
2018-09-21T09:05:52.427Z,20.80
2018-09-21T09:08:22.084Z,20.80
2018-09-21T09:10:50.763Z,20.80
2018-09-21T09:13:19.988Z,20.80
2018-09-21T09:15:49.916Z,20.80
2018-09-21T09:18:18.692Z,20.80
2018-09-21T09:20:47.564Z,20.70
2018-09-21T09:23:16.098Z,20.70
2018-09-21T09:28:13.134Z,20.70
2018-09-21T09:30:41.541Z,20.70
2018-09-21T09:33:10.184Z,20.70
2018-09-21T09:35:38.698Z,20.70
2018-09-21T09:38:07.372Z,20.70
2018-09-21T09:40:35.912Z,20.70
2018-09-21T09:43:04.471Z,20.70
2018-09-21T09:45:32.842Z,20.70
2018-09-21T09:48:01.293Z,20.70
2018-09-21T09:50:29.864Z,20.70
2018-09-21T09:52:58.461Z,20.70
2018-09-21T09:55:26.961Z,20.70
2018-09-21T09:57:55.476Z,20.70
2018-09-21T10:00:29.395Z,20.70
2018-09-21T10:02:57.935Z,20.70
2018-09-21T10:05:26.458Z,20.70
2018-09-21T10:07:54.868Z,20.70
2018-09-21T10:10:23.486Z,20.70
2018-09-21T10:12:51.860Z,20.70
2018-09-21T10:15:20.397Z,20.70
2018-09-21T10:17:48.788Z,20.70
2018-09-21T10:20:17.294Z,20.70
2018-09-21T10:22:45.809Z,20.60
2018-09-21T10:25:14.287Z,20.70
2018-09-21T10:27:42.866Z,20.60
2018-09-21T10:30:12.119Z,20.60
2018-09-21T10:32:40.776Z,20.60
2018-09-21T10:35:09.240Z,20.60
2018-09-21T10:37:37.741Z,20.60
2018-09-21T10:40:06.845Z,20.60
2018-09-21T10:42:35.347Z,20.60
2018-09-21T10:45:03.876Z,20.60
2018-09-21T10:47:32.409Z,20.60
2018-09-21T10:50:00.869Z,20.60
2018-09-21T10:52:29.508Z,20.60
2018-09-21T10:54:58.624Z,20.60
2018-09-21T10:57:27.422Z,20.60
2018-09-21T10:59:55.831Z,20.60
2018-09-21T11:02:24.317Z,20.60
2018-09-21T11:04:52.772Z,20.60
2018-09-21T11:07:21.311Z,20.60
2018-09-21T11:09:49.788Z,20.60
2018-09-21T11:12:18.220Z,20.60
2018-09-21T11:14:46.688Z,20.60
2018-09-21T11:17:15.180Z,20.60
2018-09-21T11:19:43.664Z,20.60
2018-09-21T11:22:12.203Z,20.60
2018-09-21T11:24:40.716Z,20.60
2018-09-21T11:27:09.105Z,20.60
2018-09-21T11:29:37.636Z,20.60
2018-09-21T11:32:06.111Z,20.60
2018-09-21T11:34:34.593Z,20.60
2018-09-21T11:37:03.067Z,20.60
2018-09-21T11:39:31.505Z,20.60
2018-09-21T11:41:59.980Z,20.60
2018-09-21T11:44:28.525Z,20.60
2018-09-21T11:46:57.208Z,20.60
2018-09-21T11:49:25.642Z,20.60
2018-09-21T11:51:54.164Z,20.60
2018-09-21T11:54:22.615Z,20.60
2018-09-21T11:56:51.079Z,20.60
2018-09-21T11:59:19.601Z,20.60
2018-09-21T12:01:48.284Z,20.60
2018-09-21T12:04:16.731Z,20.60
2018-09-21T12:06:45.206Z,20.60
2018-09-21T12:09:13.706Z,20.60
2018-09-21T12:11:42.234Z,20.60
2018-09-21T12:14:10.721Z,20.60
2018-09-21T12:16:39.279Z,20.60
2018-09-21T12:19:07.831Z,20.60
2018-09-21T12:21:36.279Z,20.60
2018-09-21T12:24:05.036Z,20.60
2018-09-21T12:26:33.420Z,20.60
2018-09-21T12:29:01.926Z,20.60
2018-09-21T12:31:30.524Z,20.60
2018-09-21T12:33:59.140Z,20.60
2018-09-21T12:36:27.614Z,20.60
2018-09-21T12:38:56.068Z,20.60
2018-09-21T12:41:24.560Z,20.60
2018-09-21T12:43:53.008Z,20.60
2018-09-21T12:46:25.567Z,20.60
2018-09-21T12:49:02.068Z,20.60
2018-09-21T12:51:30.751Z,20.60
2018-09-21T12:53:59.210Z,20.60
2018-09-21T12:56:27.754Z,20.60
2018-09-21T12:58:56.483Z,20.60
2018-09-21T13:01:24.914Z,20.60
2018-09-21T13:03:53.428Z,20.60
2018-09-21T13:06:22.087Z,20.60
2018-09-21T13:08:50.519Z,20.60
2018-09-21T13:11:19.036Z,20.60
2018-09-21T13:13:47.518Z,20.60
2018-09-21T13:16:15.968Z,20.60
2018-09-21T13:18:44.436Z,20.60
2018-09-21T13:21:12.991Z,20.60
2018-09-21T13:23:41.432Z,20.60
2018-09-21T13:26:09.888Z,20.60
2018-09-21T13:28:38.352Z,20.60
2018-09-21T13:31:06.840Z,20.60
2018-09-21T13:33:35.371Z,20.60
2018-09-21T13:36:03.984Z,20.60
2018-09-21T13:38:32.552Z,20.60
2018-09-21T13:41:01.008Z,20.60
2018-09-21T13:43:29.447Z,20.60
2018-09-21T13:45:59.543Z,20.60
2018-09-21T13:48:28.032Z,20.60
2018-09-21T13:50:56.515Z,20.60
2018-09-21T13:53:25.279Z,20.60
2018-09-21T13:55:53.768Z,20.60
2018-09-21T13:58:22.395Z,20.60
2018-09-21T14:00:50.856Z,20.60
2018-09-21T14:03:19.372Z,20.60
2018-09-21T14:05:47.842Z,20.60
2018-09-21T14:08:16.314Z,20.60
2018-09-21T14:10:44.772Z,20.60
2018-09-21T14:13:13.265Z,20.60
2018-09-21T14:15:41.737Z,20.60
2018-09-21T14:18:10.232Z,20.60
2018-09-21T14:20:38.691Z,20.50
2018-09-21T14:23:07.197Z,20.60
2018-09-21T14:25:35.659Z,20.50
2018-09-21T14:28:04.152Z,20.60
2018-09-21T14:30:32.684Z,20.50
2018-09-21T14:33:01.112Z,20.50
2018-09-21T14:35:29.631Z,20.50
2018-09-21T14:37:58.101Z,20.50
2018-09-21T14:40:26.534Z,20.50
2018-09-21T14:42:55.129Z,20.50
2018-09-21T14:45:23.724Z,20.50
2018-09-21T14:47:52.690Z,20.50
2018-09-21T14:50:21.307Z,20.50
2018-09-21T14:52:49.755Z,20.50
2018-09-21T14:55:18.415Z,20.50
2018-09-21T14:57:46.916Z,20.50
2018-09-21T15:00:15.591Z,20.50
2018-09-21T15:02:44.100Z,20.50
2018-09-21T15:05:12.644Z,20.50
2018-09-21T15:07:41.045Z,20.50
2018-09-21T15:10:09.584Z,20.50
2018-09-21T15:12:38.185Z,20.50
2018-09-21T15:15:06.885Z,20.50
2018-09-21T15:17:35.372Z,20.50
2018-09-21T15:20:03.882Z,20.50
2018-09-21T15:22:32.337Z,20.50
2018-09-21T15:25:00.876Z,20.50
2018-09-21T15:27:29.293Z,20.50
2018-09-21T15:29:57.921Z,20.50
2018-09-21T15:32:26.551Z,20.50
2018-09-21T15:34:54.961Z,20.50
2018-09-21T15:37:23.452Z,20.50
2018-09-21T15:39:51.937Z,20.50
2018-09-21T15:42:20.661Z,20.50
2018-09-21T15:44:49.071Z,20.50
2018-09-21T15:47:17.594Z,20.50
2018-09-21T15:49:46.050Z,20.50
2018-09-21T15:52:14.520Z,20.50
2018-09-21T15:54:42.990Z,20.50
2018-09-21T15:57:11.540Z,20.50
2018-09-21T15:59:39.978Z,20.50
2018-09-21T16:02:08.466Z,20.50
2018-09-21T16:04:36.909Z,20.50
2018-09-21T16:07:05.719Z,20.50
2018-09-21T16:09:34.305Z,20.50
2018-09-21T16:12:02.868Z,20.50
2018-09-21T16:14:31.451Z,20.50
2018-09-21T16:16:59.952Z,20.50
2018-09-21T16:19:28.432Z,20.50
2018-09-21T16:21:56.997Z,20.50
2018-09-21T16:24:25.656Z,20.50
2018-09-21T16:26:54.057Z,20.50
2018-09-21T16:29:22.544Z,20.50
2018-09-21T16:31:51.014Z,20.50
2018-09-21T16:34:19.520Z,20.50
2018-09-21T16:36:48.077Z,20.50
2018-09-21T16:39:16.461Z,20.50
2018-09-21T16:41:44.989Z,20.50
2018-09-21T16:44:13.453Z,20.50
2018-09-21T16:46:41.909Z,20.50
2018-09-21T16:49:10.422Z,20.50
2018-09-21T16:51:38.925Z,20.50
2018-09-21T16:54:07.398Z,20.50
2018-09-21T16:56:35.812Z,20.50
2018-09-21T16:59:04.388Z,20.50
2018-09-21T17:01:33.120Z,20.50
2018-09-21T17:04:01.663Z,20.50
2018-09-21T17:06:30.342Z,20.50
2018-09-21T17:08:58.848Z,20.40
2018-09-21T17:11:27.631Z,20.50
2018-09-21T17:13:55.992Z,20.40
2018-09-21T17:16:24.460Z,20.40
2018-09-21T17:18:52.962Z,20.40
2018-09-21T17:21:21.471Z,20.40
2018-09-21T17:23:49.961Z,20.40
2018-09-21T17:26:18.399Z,20.40
2018-09-21T17:28:47.060Z,20.40
2018-09-21T17:31:15.552Z,20.40
2018-09-21T17:33:44.046Z,20.40
2018-09-21T17:36:12.531Z,20.40
2018-09-21T17:38:41.044Z,20.40
2018-09-21T17:41:09.529Z,20.40
2018-09-21T17:43:38.213Z,20.40
2018-09-21T17:46:06.668Z,20.40
2018-09-21T17:48:35.156Z,20.40
2018-09-21T17:51:03.648Z,20.40
2018-09-21T17:53:32.079Z,20.40
2018-09-21T17:56:00.574Z,20.40
2018-09-21T17:58:29.848Z,20.40
2018-09-21T18:00:58.363Z,20.40
2018-09-21T18:03:26.824Z,20.40
2018-09-21T18:05:55.300Z,20.40
2018-09-21T18:08:23.775Z,20.40
2018-09-21T18:10:52.264Z,20.40
2018-09-21T18:13:21.004Z,20.30
2018-09-21T18:15:49.509Z,20.40
2018-09-21T18:18:18.898Z,20.40
2018-09-21T18:20:47.460Z,20.40
2018-09-21T18:23:15.911Z,20.30
2018-09-21T18:25:44.464Z,20.30
2018-09-21T18:28:12.864Z,20.30
2018-09-21T18:30:41.333Z,20.30
2018-09-21T18:33:15.175Z,20.30
2018-09-21T18:35:43.633Z,20.30
2018-09-21T18:38:12.115Z,20.30
2018-09-21T18:40:40.587Z,20.30
2018-09-21T18:43:09.078Z,20.30
2018-09-21T18:45:37.550Z,20.30
2018-09-21T18:48:06.017Z,20.30
2018-09-21T18:50:34.547Z,20.30
2018-09-21T18:53:03.032Z,20.30
2018-09-21T18:55:31.798Z,20.30
2018-09-21T18:58:00.381Z,20.30
2018-09-21T19:00:28.842Z,20.30
2018-09-21T19:02:57.373Z,20.30
2018-09-21T19:05:25.826Z,20.30
2018-09-21T19:07:54.267Z,20.30
2018-09-21T19:10:22.732Z,20.30
2018-09-21T19:12:51.239Z,20.30
2018-09-21T19:15:19.775Z,20.30
2018-09-21T19:17:48.204Z,20.30
2018-09-21T19:20:16.660Z,20.30
2018-09-21T19:22:45.152Z,20.30
2018-09-21T19:25:13.651Z,20.30
2018-09-21T19:27:42.118Z,20.30
2018-09-21T19:30:10.589Z,20.30
2018-09-21T19:32:39.184Z,20.30
2018-09-21T19:35:07.752Z,20.30
2018-09-21T19:37:36.252Z,20.30
2018-09-21T19:40:04.726Z,20.30
2018-09-21T19:42:33.485Z,20.30
2018-09-21T19:45:02.098Z,20.30
2018-09-21T19:47:30.576Z,20.30
2018-09-21T19:49:59.052Z,20.30
2018-09-21T19:52:27.529Z,20.30
2018-09-21T19:54:56.091Z,20.30
2018-09-21T19:57:24.484Z,20.20
2018-09-21T19:59:53.370Z,20.30
2018-09-21T20:02:21.860Z,20.20
2018-09-21T20:04:50.678Z,20.20
2018-09-21T20:07:19.063Z,20.20
2018-09-21T20:09:47.520Z,20.30
2018-09-21T20:12:16.191Z,20.20
2018-09-21T20:14:44.678Z,20.20
2018-09-21T20:17:13.148Z,20.20
2018-09-21T20:19:41.688Z,20.20
2018-09-21T20:22:10.912Z,20.20
2018-09-21T20:24:39.428Z,20.20
2018-09-21T20:27:07.888Z,20.20
2018-09-21T20:29:36.416Z,20.20
2018-09-21T20:32:10.096Z,20.20
2018-09-21T20:34:38.680Z,20.20
2018-09-21T20:37:07.415Z,20.20
2018-09-21T20:39:35.833Z,20.20
2018-09-21T20:42:04.301Z,20.20
2018-09-21T20:44:32.830Z,20.20
2018-09-21T20:47:01.316Z,20.20
2018-09-21T20:49:29.895Z,20.20
2018-09-21T20:51:58.422Z,20.20
2018-09-21T20:54:26.916Z,20.20
2018-09-21T20:56:55.384Z,20.20
2018-09-21T20:59:24.200Z,20.20
2018-09-21T21:01:52.577Z,20.20
2018-09-21T21:04:21.079Z,20.20
2018-09-21T21:06:49.522Z,20.20
2018-09-21T21:09:17.996Z,20.20
2018-09-21T21:11:46.514Z,20.20
2018-09-21T21:14:14.992Z,20.20
2018-09-21T21:16:43.434Z,20.20
2018-09-21T21:19:11.918Z,20.10
2018-09-21T21:21:41.402Z,20.20
2018-09-21T21:24:09.884Z,20.10
2018-09-21T21:26:38.409Z,20.10
2018-09-21T21:29:06.910Z,20.10
2018-09-21T21:31:35.337Z,20.10
2018-09-21T21:34:03.873Z,20.10
2018-09-21T21:36:32.765Z,20.10
2018-09-21T21:39:01.957Z,20.10
2018-09-21T21:41:30.564Z,20.10
2018-09-21T21:43:59.011Z,20.10
2018-09-21T21:46:27.451Z,20.10
2018-09-21T21:48:55.909Z,20.10
2018-09-21T21:51:24.411Z,20.10
2018-09-21T21:53:52.876Z,20.10
2018-09-21T21:56:21.556Z,20.10
2018-09-21T21:58:50.050Z,20.10
2018-09-21T22:01:23.769Z,20.10
2018-09-21T22:03:52.399Z,20.10
2018-09-21T22:06:20.843Z,20.10
2018-09-21T22:08:49.313Z,20.10
2018-09-21T22:11:23.272Z,20.10
2018-09-21T22:13:57.066Z,20.10
2018-09-21T22:16:25.580Z,20.10
2018-09-21T22:18:54.133Z,20.10
2018-09-21T22:21:22.751Z,20.10
2018-09-21T22:23:51.250Z,20.10
2018-09-21T22:26:20.090Z,20.10
2018-09-21T22:28:48.608Z,20.10
2018-09-21T22:31:17.092Z,20.10
2018-09-21T22:33:45.629Z,20.10
2018-09-21T22:36:14.068Z,20.10
2018-09-21T22:38:42.708Z,20.10
2018-09-21T22:41:11.214Z,20.10
2018-09-21T22:43:39.702Z,20.10
2018-09-21T22:46:08.332Z,20.10
2018-09-21T22:48:36.948Z,20.10
2018-09-21T22:51:05.351Z,20.10
2018-09-21T22:53:34.028Z,20.10
2018-09-21T22:56:02.496Z,20.10
2018-09-21T22:58:30.984Z,20.10
2018-09-21T23:00:59.503Z,20.10
2018-09-21T23:03:29.292Z,20.00
2018-09-21T23:05:57.897Z,20.10
2018-09-21T23:08:26.625Z,20.10
2018-09-21T23:10:55.017Z,20.10
2018-09-21T23:13:23.692Z,20.10
2018-09-21T23:15:52.469Z,20.00
2018-09-21T23:18:20.924Z,20.00
2018-09-21T23:20:49.580Z,20.00
2018-09-21T23:23:18.073Z,20.10
2018-09-21T23:25:46.764Z,20.00
2018-09-21T23:28:15.202Z,20.00
2018-09-21T23:30:43.779Z,20.00
2018-09-21T23:33:12.176Z,20.00
2018-09-21T23:35:40.665Z,20.00
2018-09-21T23:38:09.212Z,20.00
2018-09-21T23:40:37.856Z,20.00
2018-09-21T23:43:06.299Z,20.00
2018-09-21T23:45:34.883Z,20.00
2018-09-21T23:48:03.458Z,20.00
2018-09-21T23:50:31.947Z,20.00
2018-09-21T23:53:00.723Z,20.00
2018-09-21T23:55:29.128Z,20.00
2018-09-21T23:57:57.584Z,20.00
